createdAt,value
2023-03-22T00:02:21.087Z,48.20
2023-03-22T00:04:48.367Z,48.20
2023-03-22T00:07:15.348Z,49.10
2023-03-22T00:09:42.509Z,47.70
2023-03-22T00:12:11.366Z,47.90
2023-03-22T00:14:41.336Z,48.10
2023-03-22T00:17:07.987Z,49.40
2023-03-22T00:19:35.066Z,48.40
2023-03-22T00:22:03.091Z,49.70
2023-03-22T00:24:34.352Z,48.90
2023-03-22T00:27:01.675Z,50.00
2023-03-22T00:29:28.917Z,51.70
2023-03-22T00:31:56.229Z,51.50
2023-03-22T00:34:23.047Z,49.70
2023-03-22T00:36:51.310Z,48.20
2023-03-22T00:39:19.032Z,47.90
2023-03-22T00:41:47.235Z,47.10
2023-03-22T00:44:14.767Z,47.20
2023-03-22T00:46:42.098Z,46.80
2023-03-22T00:49:09.214Z,46.40
2023-03-22T00:51:35.875Z,46.30
2023-03-22T00:54:04.009Z,45.60
2023-03-22T00:56:33.330Z,45.60
2023-03-22T00:59:06.515Z,45.10
2023-03-22T01:01:38.657Z,44.80
2023-03-22T01:04:05.994Z,44.10
2023-03-22T01:06:33.602Z,43.60
2023-03-22T01:09:01.169Z,42.40
2023-03-22T01:11:28.637Z,41.40
2023-03-22T01:13:56.629Z,40.70
2023-03-22T01:16:24.752Z,39.60
2023-03-22T01:18:51.786Z,39.20
2023-03-22T01:21:18.937Z,39.80
2023-03-22T01:23:46.252Z,38.10
2023-03-22T01:26:13.504Z,37.90
2023-03-22T01:28:40.797Z,37.70
2023-03-22T01:31:07.998Z,36.80
2023-03-22T01:33:35.312Z,35.70
2023-03-22T01:36:03.618Z,36.40
2023-03-22T01:38:32.659Z,35.80
2023-03-22T01:41:01.859Z,35.40
2023-03-22T01:43:31.564Z,35.90
2023-03-22T01:45:59.592Z,35.00
2023-03-22T01:48:36.895Z,35.40
2023-03-22T01:51:08.300Z,35.60
2023-03-22T01:53:48.454Z,35.40
2023-03-22T01:56:17.020Z,34.80
2023-03-22T01:58:44.208Z,34.90
2023-03-22T02:01:11.839Z,34.50
2023-03-22T02:04:14.871Z,35.20
2023-03-22T02:06:41.840Z,34.00
2023-03-22T02:09:14.062Z,32.50
2023-03-22T02:11:45.681Z,33.70
2023-03-22T02:14:45.349Z,33.40
2023-03-22T02:18:07.264Z,33.00
2023-03-22T02:20:54.608Z,32.70
2023-03-22T02:23:54.006Z,34.70
2023-03-22T02:26:58.899Z,32.70
2023-03-22T02:29:48.703Z,32.70
2023-03-22T02:32:34.449Z,33.40
2023-03-22T02:35:20.951Z,33.50
2023-03-22T02:38:13.992Z,32.80
2023-03-22T02:40:55.685Z,33.10
2023-03-22T02:43:37.996Z,32.80
2023-03-22T02:46:07.167Z,33.60
2023-03-22T02:48:40.264Z,34.50
2023-03-22T02:51:11.408Z,34.40
2023-03-22T02:53:44.175Z,33.70
2023-03-22T02:56:14.265Z,34.30
2023-03-22T02:58:51.384Z,34.00
2023-03-22T03:01:30.156Z,34.50
2023-03-22T03:04:00.703Z,35.00
2023-03-22T03:06:30.603Z,36.50
2023-03-22T03:08:57.842Z,35.40
2023-03-22T03:11:25.991Z,35.80
2023-03-22T03:13:53.293Z,34.30
2023-03-22T03:16:21.533Z,35.90
2023-03-22T03:19:07.373Z,35.20
2023-03-22T03:21:53.067Z,36.20
2023-03-22T03:24:32.557Z,35.90
2023-03-22T03:27:25.147Z,34.90
2023-03-22T03:30:01.379Z,36.30
2023-03-22T03:32:34.934Z,35.90
2023-03-22T03:35:06.619Z,36.80
2023-03-22T03:37:41.669Z,36.80
2023-03-22T03:40:20.832Z,35.10
2023-03-22T03:42:49.954Z,35.70
2023-03-22T03:45:16.898Z,35.50
2023-03-22T03:47:46.143Z,36.80
2023-03-22T03:50:15.201Z,36.00
2023-03-22T03:52:44.528Z,35.80
2023-03-22T03:55:11.584Z,35.40
2023-03-22T03:57:39.845Z,35.20
2023-03-22T04:00:08.807Z,34.90
2023-03-22T04:02:46.086Z,33.40
2023-03-22T04:05:26.100Z,33.40
2023-03-22T04:07:52.962Z,33.70
2023-03-22T04:10:19.926Z,34.00
2023-03-22T04:12:49.233Z,34.50
2023-03-22T04:15:18.213Z,35.00
2023-03-22T04:17:48.120Z,37.70
2023-03-22T04:20:16.462Z,39.70
2023-03-22T04:22:46.228Z,38.20
2023-03-22T04:25:18.690Z,45.10
2023-03-22T04:27:55.180Z,43.60
2023-03-22T04:30:24.019Z,43.20
2023-03-22T04:33:11.149Z,39.60
2023-03-22T04:35:58.776Z,39.70
2023-03-22T04:38:33.485Z,37.50
2023-03-22T04:41:00.760Z,35.20
2023-03-22T04:43:50.365Z,36.90
2023-03-22T04:46:20.679Z,37.30
2023-03-22T04:48:52.901Z,35.10
2023-03-22T04:51:20.313Z,36.40
2023-03-22T04:53:58.880Z,36.50
2023-03-22T04:56:25.643Z,37.20
2023-03-22T04:58:52.615Z,37.30
2023-03-22T05:01:22.749Z,38.30
2023-03-22T05:03:56.065Z,37.70
2023-03-22T05:06:22.828Z,38.00
2023-03-22T05:09:00.414Z,38.70
2023-03-22T05:11:27.637Z,37.80
2023-03-22T05:14:12.028Z,38.20
2023-03-22T05:16:41.187Z,36.30
2023-03-22T05:19:13.236Z,35.90
2023-03-22T05:24:10.585Z,34.60
2023-03-22T05:26:41.652Z,34.80
2023-03-22T05:29:10.440Z,34.90
2023-03-22T05:32:00.105Z,33.60
2023-03-22T05:34:34.730Z,33.80
2023-03-22T05:37:06.040Z,34.30
2023-03-22T05:39:55.022Z,33.60
2023-03-22T05:42:25.837Z,33.30
2023-03-22T05:44:52.560Z,32.80
2023-03-22T05:47:20.445Z,33.30
2023-03-22T05:50:00.836Z,33.60
2023-03-22T05:52:28.174Z,33.10
2023-03-22T05:55:13.091Z,33.80
2023-03-22T05:57:44.261Z,33.50
2023-03-22T06:00:15.659Z,33.20
2023-03-22T06:02:56.093Z,33.50
2023-03-22T06:05:23.652Z,32.80
2023-03-22T06:07:51.539Z,32.70
2023-03-22T06:10:20.659Z,31.90
2023-03-22T06:12:54.824Z,31.40
2023-03-22T06:15:27.407Z,31.40
2023-03-22T06:18:03.863Z,30.10
2023-03-22T06:20:36.182Z,30.40
2023-03-22T06:23:08.994Z,29.80
2023-03-22T06:25:36.136Z,29.70
2023-03-22T06:28:03.379Z,28.80
2023-03-22T06:30:30.918Z,27.70
2023-03-22T06:33:21.081Z,26.80
2023-03-22T06:35:53.055Z,26.70
2023-03-22T06:38:27.957Z,27.50
2023-03-22T06:40:55.738Z,27.80
2023-03-22T06:43:23.947Z,27.30
2023-03-22T06:45:52.155Z,26.50
2023-03-22T06:48:23.107Z,26.60
2023-03-22T06:50:59.065Z,26.20
2023-03-22T06:53:31.650Z,26.00
2023-03-22T06:55:58.501Z,26.20
2023-03-22T06:58:26.502Z,25.20
2023-03-22T07:00:55.645Z,26.50
2023-03-22T07:03:26.416Z,26.60
2023-03-22T07:06:04.261Z,26.40
2023-03-22T07:08:34.941Z,26.70
2023-03-22T07:11:07.133Z,26.30
2023-03-22T07:13:36.217Z,26.30
2023-03-22T07:16:11.501Z,26.70
2023-03-22T07:19:01.761Z,19.40
2023-03-22T07:21:29.920Z,27.10
2023-03-22T07:23:59.772Z,25.70
2023-03-22T07:26:30.039Z,27.30
2023-03-22T07:29:04.200Z,26.70
2023-03-22T07:31:36.027Z,25.70
2023-03-22T07:34:06.267Z,25.40
2023-03-22T07:36:44.118Z,25.60
2023-03-22T07:39:17.177Z,25.60
2023-03-22T07:41:47.607Z,26.40
2023-03-22T07:44:24.864Z,25.70
2023-03-22T07:47:07.598Z,25.00
2023-03-22T07:50:00.771Z,23.80
2023-03-22T07:52:39.369Z,24.50
2023-03-22T07:57:57.210Z,24.10
2023-03-22T08:00:30.781Z,24.40
2023-03-22T08:03:27.333Z,24.20
2023-03-22T08:06:10.269Z,24.20
2023-03-22T08:08:40.573Z,23.80
2023-03-22T08:11:12.009Z,24.90
2023-03-22T08:13:45.147Z,23.90
2023-03-22T08:16:16.212Z,24.00
2023-03-22T08:18:47.065Z,24.30
2023-03-22T08:21:17.491Z,24.20
2023-03-22T08:23:49.925Z,24.00
2023-03-22T08:26:49.497Z,24.20
2023-03-22T08:29:35.918Z,25.20
2023-03-22T08:32:05.951Z,24.10
2023-03-22T08:34:38.914Z,23.50
2023-03-22T08:37:08.150Z,24.60
2023-03-22T08:39:38.780Z,22.80
2023-03-22T08:42:37.736Z,22.60
2023-03-22T08:45:10.938Z,23.40
2023-03-22T08:47:50.763Z,23.60
2023-03-22T08:50:20.355Z,23.50
2023-03-22T08:53:03.097Z,22.90
2023-03-22T08:55:40.506Z,24.40
2023-03-22T08:58:20.464Z,22.80
2023-03-22T09:01:21.270Z,22.40
2023-03-22T09:03:56.564Z,23.20
2023-03-22T09:06:28.249Z,23.20
2023-03-22T09:09:00.682Z,22.90
2023-03-22T09:11:29.442Z,22.90
2023-03-22T09:13:57.715Z,21.50
2023-03-22T09:16:29.165Z,22.30
2023-03-22T09:19:02.046Z,22.60
2023-03-22T09:21:32.374Z,23.00
2023-03-22T09:24:17.407Z,22.30
2023-03-22T09:26:51.409Z,22.70
2023-03-22T09:29:22.906Z,22.00
2023-03-22T09:31:53.190Z,21.80
2023-03-22T09:34:23.117Z,22.20
2023-03-22T09:36:52.174Z,23.10
2023-03-22T09:39:22.236Z,22.30
2023-03-22T09:41:53.930Z,22.20
2023-03-22T09:44:36.030Z,22.20
2023-03-22T09:47:04.892Z,22.90
2023-03-22T09:49:52.601Z,21.90
2023-03-22T09:52:20.257Z,22.90
2023-03-22T09:54:47.184Z,21.80
2023-03-22T09:57:23.969Z,20.40
2023-03-22T10:00:13.995Z,21.70
2023-03-22T10:02:58.978Z,22.10
2023-03-22T10:05:35.260Z,24.90
2023-03-22T10:08:24.329Z,21.80
2023-03-22T10:10:52.241Z,19.70
2023-03-22T10:13:46.613Z,19.50
2023-03-22T10:16:18.968Z,19.10
2023-03-22T10:18:49.188Z,17.40
2023-03-22T10:22:32.882Z,16.70
2023-03-22T10:29:50.727Z,15.90
2023-03-22T10:32:57.590Z,14.40
2023-03-22T10:35:25.035Z,14.40
2023-03-22T10:37:51.794Z,13.40
2023-03-22T10:40:20.612Z,14.60
2023-03-22T10:42:52.629Z,16.90
2023-03-22T10:45:19.593Z,17.20
2023-03-22T10:48:05.033Z,14.40
2023-03-22T10:53:23.048Z,8.90
2023-03-22T10:55:50.375Z,9.80
2023-03-22T10:58:21.337Z,11.50
2023-03-22T11:00:50.042Z,10.40
2023-03-22T11:03:36.157Z,11.40
2023-03-22T11:06:17.147Z,10.60
2023-03-22T11:08:49.000Z,12.40
2023-03-22T11:11:38.328Z,14.10
2023-03-22T11:14:08.014Z,15.90
2023-03-22T11:17:06.068Z,14.90
2023-03-22T11:19:34.024Z,14.40
2023-03-22T11:22:04.572Z,15.20
2023-03-22T11:24:32.533Z,14.10
2023-03-22T11:27:05.216Z,15.10
2023-03-22T11:29:49.123Z,15.20
2023-03-22T11:32:28.484Z,15.40
2023-03-22T11:35:19.752Z,16.10
2023-03-22T11:37:51.317Z,16.60
2023-03-22T11:40:21.924Z,15.50
2023-03-22T11:42:51.691Z,16.10
2023-03-22T11:45:27.515Z,15.40
2023-03-22T11:50:29.650Z,15.90
2023-03-22T11:52:56.602Z,16.00
2023-03-22T11:55:24.070Z,16.00
2023-03-22T11:57:51.221Z,15.90
2023-03-22T12:00:20.871Z,15.80
2023-03-22T12:02:55.434Z,16.50
2023-03-22T12:05:28.102Z,16.60
2023-03-22T12:08:18.633Z,15.90
2023-03-22T12:10:48.455Z,17.00
2023-03-22T12:13:23.089Z,17.00
2023-03-22T12:15:56.078Z,17.00
2023-03-22T12:18:41.143Z,16.30
2023-03-22T12:21:09.439Z,17.20
2023-03-22T12:23:37.441Z,16.80
2023-03-22T12:26:11.444Z,16.80
2023-03-22T12:29:02.505Z,16.50
2023-03-22T12:31:31.623Z,15.50
2023-03-22T12:34:02.474Z,15.80
2023-03-22T12:36:42.445Z,16.30
2023-03-22T12:39:26.388Z,16.30
2023-03-22T12:41:53.592Z,16.50
2023-03-22T12:44:28.814Z,16.00
2023-03-22T12:46:56.883Z,16.50
2023-03-22T12:49:30.557Z,15.40
2023-03-22T12:52:10.407Z,15.60
2023-03-22T12:54:37.242Z,16.50
2023-03-22T12:57:04.108Z,16.30
2023-03-22T12:59:32.570Z,17.50
2023-03-22T13:02:17.805Z,17.10
2023-03-22T13:04:51.794Z,17.90
2023-03-22T13:07:30.566Z,18.70
2023-03-22T13:10:00.428Z,18.80
2023-03-22T13:12:41.659Z,18.30
2023-03-22T13:15:56.337Z,18.10
2023-03-22T13:18:35.161Z,17.60
2023-03-22T13:21:31.184Z,16.90
2023-03-22T13:24:00.810Z,15.70
2023-03-22T13:26:34.610Z,16.10
2023-03-22T13:31:42.929Z,14.40
2023-03-22T13:34:15.538Z,15.10
2023-03-22T13:36:49.145Z,15.30
2023-03-22T13:39:15.983Z,14.80
2023-03-22T13:41:45.505Z,15.40
2023-03-22T13:44:25.790Z,16.50
2023-03-22T13:46:52.800Z,14.10
2023-03-22T13:49:53.586Z,14.70
2023-03-22T13:52:35.186Z,14.60
2023-03-22T13:55:02.646Z,15.50
2023-03-22T14:01:49.076Z,15.60
2023-03-22T14:04:22.006Z,15.10
2023-03-22T14:06:54.516Z,15.10
2023-03-22T14:09:31.156Z,14.30
2023-03-22T14:12:49.892Z,14.40
2023-03-22T14:15:30.767Z,13.80
2023-03-22T14:18:07.125Z,14.20
2023-03-22T14:20:35.625Z,14.20
